Terminal Aerodrome Forecast
Issued by NWS Newport/Morehead City, NC

Home | Current Version | Previous Version | Graphics & Text | Print | Product List | Glossary On
Versions: 1 2 3 4 5 6 7 8 9 10 11 12 13 14 15 16 17
000
FTUS42 KMHX 051740
TAFEWN
TAF
KEWN 051740Z 0518/0618 01013G20KT 5SM -SHRA BKN030
     FM052100 01015G25KT 5SM -RA BR OVC007
     FM060100 01017G27KT 3SM -FZRAPL OVC005
     FM060900 01017G25KT P6SM OVC015
     FM061200 01015G23KT P6SM SCT100=

USA.gov is the U.S. government's official web portal to all federal, state and local government web resources and services.